Baldwin, North Dakota
Current Conditions -  °F | °C
As of 3:52 AM on Tuesday 27 Jan 2015 (Local Time) from KBIS Reporting Station
Clear Clear  
Wind Chill: 22°   Ceiling: Unl
Heat Index: 30°   Visibility: 10mi
Dew Point: 28°   Wind: 8mph
Humidity: 92%   Direction: 70°ENE
Pressure: 29.93"   Gusts: NA
Location:  47.02°N, 100.75°W
Report Text: KBIS 270952Z AUTO 07007KT 10SM CLR M01/M02 A2993 RMK AO2 SLP149 T10111022
Loading
Personal Weather Stations






























Interactive Weather Map New forecast layout! Learn more

10-Day Weather Forecast

Advertisements
Track Severe Weather on mobile